sensor_id;sensor_type;location;lat;lon;timestamp;pressure;altitude;pressure_sealevel;temperature;humidity
19594;BME280;9944;48.240;16.478;2023-03-31T00:03:34;99394.63;;;10.29;68.73
19594;BME280;9944;48.240;16.478;2023-03-31T00:07:39;99399.94;;;10.24;69.00
19594;BME280;9944;48.240;16.478;2023-03-31T00:11:42;99400.88;;;10.20;68.96
19594;BME280;9944;48.240;16.478;2023-03-31T00:15:45;99407.97;;;10.12;68.85
19594;BME280;9944;48.240;16.478;2023-03-31T00:19:50;99412.41;;;10.05;68.68
19594;BME280;9944;48.240;16.478;2023-03-31T00:23:55;99405.44;;;9.97;68.74
19594;BME280;9944;48.240;16.478;2023-03-31T00:27:59;99403.75;;;9.91;68.75
19594;BME280;9944;48.240;16.478;2023-03-31T00:32:02;99393.19;;;9.91;69.15
19594;BME280;9944;48.240;16.478;2023-03-31T00:36:07;99388.78;;;9.87;68.66
19594;BME280;9944;48.240;16.478;2023-03-31T00:40:10;99382.66;;;9.82;69.17
19594;BME280;9944;48.240;16.478;2023-03-31T00:44:15;99376.53;;;9.78;69.30
19594;BME280;9944;48.240;16.478;2023-03-31T00:48:23;99379.25;;;9.71;69.30
19594;BME280;9944;48.240;16.478;2023-03-31T00:52:33;99373.13;;;9.65;69.10
19594;BME280;9944;48.240;16.478;2023-03-31T00:56:41;99366.13;;;9.61;69.13
19594;BME280;9944;48.240;16.478;2023-03-31T01:00:46;99360.03;;;9.56;69.26
19594;BME280;9944;48.240;16.478;2023-03-31T01:04:52;99360.06;;;9.50;69.43
19594;BME280;9944;48.240;16.478;2023-03-31T01:09:00;99365.34;;;9.47;69.23
19594;BME280;9944;48.240;16.478;2023-03-31T01:13:08;99366.25;;;9.40;69.17
19594;BME280;9944;48.240;16.478;2023-03-31T01:17:12;99350.50;;;9.32;69.11
19594;BME280;9944;48.240;16.478;2023-03-31T01:21:39;99351.41;;;9.26;69.57
19594;BME280;9944;48.240;16.478;2023-03-31T01:35:53;99342.69;;;9.18;69.54
19594;BME280;9944;48.240;16.478;2023-03-31T01:40:11;99342.69;;;9.18;69.75
19594;BME280;9944;48.240;16.478;2023-03-31T01:44:20;99335.66;;;9.16;69.87
19594;BME280;9944;48.240;16.478;2023-03-31T01:48:39;99335.69;;;9.14;69.99
19594;BME280;9944;48.240;16.478;2023-03-31T01:52:48;99338.34;;;9.08;69.95
19594;BME280;9944;48.240;16.478;2023-03-31T01:56:58;99335.72;;;9.05;69.93
19594;BME280;9944;48.240;16.478;2023-03-31T02:01:09;99337.50;;;9.03;69.92
19594;BME280;9944;48.240;16.478;2023-03-31T02:05:19;99324.34;;;9.03;70.02
19594;BME280;9944;48.240;16.478;2023-03-31T02:09:28;99316.44;;;9.00;70.08
19594;BME280;9944;48.240;16.478;2023-03-31T02:13:35;99315.59;;;9.01;70.48
19594;BME280;9944;48.240;16.478;2023-03-31T02:17:41;99310.28;;;9.04;70.47
19594;BME280;9944;48.240;16.478;2023-03-31T02:21:47;99312.91;;;9.05;70.63
19594;BME280;9944;48.240;16.478;2023-03-31T02:25:54;99299.72;;;9.08;70.53
19594;BME280;9944;48.240;16.478;2023-03-31T02:30:01;99304.06;;;9.12;70.65
19594;BME280;9944;48.240;16.478;2023-03-31T02:34:05;99307.63;;;9.10;70.50
19594;BME280;9944;48.240;16.478;2023-03-31T02:38:09;99289.19;;;9.08;70.84
19594;BME280;9944;48.240;16.478;2023-03-31T02:42:12;99286.56;;;9.08;70.79
19594;BME280;9944;48.240;16.478;2023-03-31T02:46:17;99287.44;;;9.07;70.48
19594;BME280;9944;48.240;16.478;2023-03-31T02:50:25;99284.84;;;9.06;70.40
19594;BME280;9944;48.240;16.478;2023-03-31T02:54:45;99274.31;;;9.01;70.37
19594;BME280;9944;48.240;16.478;2023-03-31T02:59:03;99276.09;;;8.99;70.40
19594;BME280;9944;48.240;16.478;2023-03-31T03:03:22;99276.09;;;8.98;70.58
19594;BME280;9944;48.240;16.478;2023-03-31T03:07:33;99269.97;;;8.96;70.49
19594;BME280;9944;48.240;16.478;2023-03-31T03:11:45;99268.22;;;8.95;70.64
19594;BME280;9944;48.240;16.478;2023-03-31T03:15:57;99274.34;;;8.93;70.74
19594;BME280;9944;48.240;16.478;2023-03-31T03:20:07;99265.59;;;8.91;70.39
19594;BME280;9944;48.240;16.478;2023-03-31T03:24:11;99270.91;;;8.85;70.05
19594;BME280;9944;48.240;16.478;2023-03-31T03:28:14;99267.44;;;8.77;70.10
19594;BME280;9944;48.240;16.478;2023-03-31T03:32:18;99255.19;;;8.70;70.10
19594;BME280;9944;48.240;16.478;2023-03-31T03:36:22;99248.16;;;8.66;70.23
19594;BME280;9944;48.240;16.478;2023-03-31T03:40:26;99244.69;;;8.64;70.64
19594;BME280;9944;48.240;16.478;2023-03-31T03:44:29;99246.47;;;8.59;70.25
19594;BME280;9944;48.240;16.478;2023-03-31T03:48:32;99236.00;;;8.49;70.04
19594;BME280;9944;48.240;16.478;2023-03-31T03:52:37;99237.78;;;8.41;69.61
19594;BME280;9944;48.240;16.478;2023-03-31T03:56:40;99240.44;;;8.32;69.86
19594;BME280;9944;48.240;16.478;2023-03-31T04:00:43;99238.69;;;8.26;70.16
19594;BME280;9944;48.240;16.478;2023-03-31T04:04:46;99231.66;;;8.22;69.86
19594;BME280;9944;48.240;16.478;2023-03-31T04:08:51;99229.06;;;8.16;70.18
19594;BME280;9944;48.240;16.478;2023-03-31T04:12:54;99221.22;;;8.05;69.83
19594;BME280;9944;48.240;16.478;2023-03-31T04:16:57;99221.22;;;7.94;70.03
19594;BME280;9944;48.240;16.478;2023-03-31T04:21:00;99212.53;;;7.86;69.80
19594;BME280;9944;48.240;16.478;2023-03-31T04:25:09;99213.41;;;7.77;70.16
19594;BME280;9944;48.240;16.478;2023-03-31T04:29:16;99204.66;;;7.69;70.63
19594;BME280;9944;48.240;16.478;2023-03-31T04:33:21;99211.69;;;7.67;70.70
19594;BME280;9944;48.240;16.478;2023-03-31T04:37:24;99208.16;;;7.67;70.92
19594;BME280;9944;48.240;16.478;2023-03-31T04:41:30;99209.06;;;7.67;71.57
19594;BME280;9944;48.240;16.478;2023-03-31T04:45:33;99197.66;;;7.68;71.91
19594;BME280;9944;48.240;16.478;2023-03-31T04:49:43;99187.13;;;7.68;71.93
19594;BME280;9944;48.240;16.478;2023-03-31T04:53:46;99183.66;;;7.66;72.11
19594;BME280;9944;48.240;16.478;2023-03-31T04:57:51;99176.66;;;7.62;72.03
19594;BME280;9944;48.240;16.478;2023-03-31T05:01:54;99175.78;;;7.60;72.39
19594;BME280;9944;48.240;16.478;2023-03-31T05:05:57;99168.78;;;7.57;72.71
19594;BME280;9944;48.240;16.478;2023-03-31T05:10:00;99177.56;;;7.55;72.66
19594;BME280;9944;48.240;16.478;2023-03-31T05:14:05;99183.66;;;7.51;72.63
19594;BME280;9944;48.240;16.478;2023-03-31T05:18:08;99178.41;;;7.51;73.16
19594;BME280;9944;48.240;16.478;2023-03-31T05:22:11;99173.16;;;7.49;73.15
19594;BME280;9944;48.240;16.478;2023-03-31T05:26:14;99179.31;;;7.50;73.41
19594;BME280;9944;48.240;16.478;2023-03-31T05:30:19;99167.91;;;7.51;73.74
19594;BME280;9944;48.240;16.478;2023-03-31T05:34:22;99170.53;;;7.49;73.87
19594;BME280;9944;48.240;16.478;2023-03-31T05:38:25;99177.53;;;7.50;73.96
19594;BME280;9944;48.240;16.478;2023-03-31T05:42:32;99174.91;;;7.52;74.31
19594;BME280;9944;48.240;16.478;2023-03-31T05:46:36;99168.78;;;7.54;74.38
19594;BME280;9944;48.240;16.478;2023-03-31T05:50:39;99150.38;;;7.59;74.50
19594;BME280;9944;48.240;16.478;2023-03-31T05:54:43;99136.34;;;7.66;74.72
19594;BME280;9944;48.240;16.478;2023-03-31T05:58:46;99133.72;;;7.74;75.00
19594;BME280;9944;48.240;16.478;2023-03-31T06:02:51;99133.69;;;7.83;75.05
19594;BME280;9944;48.240;16.478;2023-03-31T06:06:54;99122.25;;;7.93;75.13
19594;BME280;9944;48.240;16.478;2023-03-31T06:10:59;99118.72;;;8.02;75.26
19594;BME280;9944;48.240;16.478;2023-03-31T06:15:02;99103.75;;;8.15;75.50
19594;BME280;9944;48.240;16.478;2023-03-31T06:19:07;99090.53;;;8.30;75.91
19594;BME280;9944;48.240;16.478;2023-03-31T06:23:10;99098.34;;;8.49;75.55
19594;BME280;9944;48.240;16.478;2023-03-31T06:27:13;99095.59;;;8.64;75.04
19594;BME280;9944;48.240;16.478;2023-03-31T06:31:18;99097.19;;;8.85;75.38
19594;BME280;9944;48.240;16.478;2023-03-31T06:35:23;99088.22;;;9.08;75.36
19594;BME280;9944;48.240;16.478;2023-03-31T06:39:26;99081.88;;;9.29;74.99
19594;BME280;9944;48.240;16.478;2023-03-31T06:43:29;99080.81;;;9.47;74.33
19594;BME280;9944;48.240;16.478;2023-03-31T06:47:32;99074.50;;;9.60;73.97
19594;BME280;9944;48.240;16.478;2023-03-31T06:51:37;99077.88;;;9.73;73.32
19594;BME280;9944;48.240;16.478;2023-03-31T06:55:40;99079.44;;;9.88;73.47
19594;BME280;9944;48.240;16.478;2023-03-31T06:59:43;99073.09;;;10.06;73.22
19594;BME280;9944;48.240;16.478;2023-03-31T07:03:46;99060.53;;;10.25;72.14
19594;BME280;9944;48.240;16.478;2023-03-31T07:07:50;99037.47;;;10.39;70.88
19594;BME280;9944;48.240;16.478;2023-03-31T07:11:53;99043.25;;;10.61;70.83
19594;BME280;9944;48.240;16.478;2023-03-31T07:15:57;99030.56;;;10.84;70.25
19594;BME280;9944;48.240;16.478;2023-03-31T07:20:00;99024.91;;;11.05;69.63
19594;BME280;9944;48.240;16.478;2023-03-31T07:24:07;99014.97;;;11.19;69.13
19594;BME280;9944;48.240;16.478;2023-03-31T07:28:10;99012.06;;;11.35;68.53
19594;BME280;9944;48.240;16.478;2023-03-31T07:32:13;99006.56;;;11.46;67.93
19594;BME280;9944;48.240;16.478;2023-03-31T07:36:16;98994.88;;;11.58;67.54
19594;BME280;9944;48.240;16.478;2023-03-31T07:40:23;98984.03;;;11.70;66.95
19594;BME280;9944;48.240;16.478;2023-03-31T07:44:26;98972.31;;;11.82;66.70
19594;BME280;9944;48.240;16.478;2023-03-31T07:48:29;98958.75;;;11.96;66.47
19594;BME280;9944;48.240;16.478;2023-03-31T07:52:33;98963.88;;;12.05;65.77
19594;BME280;9944;48.240;16.478;2023-03-31T07:56:37;98956.63;;;12.13;64.29
19594;BME280;9944;48.240;16.478;2023-03-31T08:00:40;98961.75;;;12.19;63.83
19594;BME280;9944;48.240;16.478;2023-03-31T08:04:44;98958.09;;;12.25;63.21
19594;BME280;9944;48.240;16.478;2023-03-31T08:08:48;98952.69;;;12.29;63.37
19594;BME280;9944;48.240;16.478;2023-03-31T08:12:53;98936.66;;;12.36;62.63
19594;BME280;9944;48.240;16.478;2023-03-31T08:16:57;98931.28;;;12.39;62.38
19594;BME280;9944;48.240;16.478;2023-03-31T08:21:00;98925.84;;;12.45;62.05
19594;BME280;9944;48.240;16.478;2023-03-31T08:25:05;98930.09;;;12.50;61.90
19594;BME280;9944;48.240;16.478;2023-03-31T08:29:10;98911.50;;;12.54;61.80
19594;BME280;9944;48.240;16.478;2023-03-31T08:33:13;98909.63;;;12.57;61.74
19594;BME280;9944;48.240;16.478;2023-03-31T08:37:16;98902.47;;;12.62;61.25
19594;BME280;9944;48.240;16.478;2023-03-31T08:41:29;98889.97;;;12.67;61.34
19594;BME280;9944;48.240;16.478;2023-03-31T08:45:39;98879.22;;;12.74;61.18
19594;BME280;9944;48.240;16.478;2023-03-31T08:49:46;98870.28;;;12.78;61.20
19594;BME280;9944;48.240;16.478;2023-03-31T08:53:56;98861.34;;;12.82;61.08
19594;BME280;9944;48.240;16.478;2023-03-31T08:58:08;98861.22;;;12.86;60.55
19594;BME280;9944;48.240;16.478;2023-03-31T09:02:21;98847.81;;;12.91;60.49
19594;BME280;9944;48.240;16.478;2023-03-31T09:06:35;98839.78;;;12.94;60.14
19594;BME280;9944;48.240;16.478;2023-03-31T09:10:45;98844.09;;;12.98;59.96
19594;BME280;9944;48.240;16.478;2023-03-31T09:14:52;98838.69;;;13.01;59.14
19594;BME280;9944;48.240;16.478;2023-03-31T09:19:01;98823.53;;;13.06;59.71
19594;BME280;9944;48.240;16.478;2023-03-31T09:23:10;98819.97;;;13.07;58.91
19594;BME280;9944;48.240;16.478;2023-03-31T09:27:20;98813.81;;;13.07;58.94
19594;BME280;9944;48.240;16.478;2023-03-31T09:31:23;98805.84;;;13.09;58.98
19594;BME280;9944;48.240;16.478;2023-03-31T09:35:28;98808.41;;;13.10;59.45
19594;BME280;9944;48.240;16.478;2023-03-31T09:39:34;98802.13;;;13.14;58.98
19594;BME280;9944;48.240;16.478;2023-03-31T09:43:39;98800.25;;;13.18;59.18
19594;BME280;9944;48.240;16.478;2023-03-31T09:47:45;98783.31;;;13.22;58.69
19594;BME280;9944;48.240;16.478;2023-03-31T09:51:59;98769.81;;;13.31;58.72
19594;BME280;9944;48.240;16.478;2023-03-31T09:56:05;98765.91;;;13.41;58.43
19594;BME280;9944;48.240;16.478;2023-03-31T10:00:15;98768.19;;;13.54;58.42
19594;BME280;9944;48.240;16.478;2023-03-31T10:04:22;98767.06;;;13.61;58.31
19594;BME280;9944;48.240;16.478;2023-03-31T10:08:29;98742.09;;;13.68;58.68
19594;BME280;9944;48.240;16.478;2023-03-31T10:12:33;98735.59;;;13.78;58.34
19594;BME280;9944;48.240;16.478;2023-03-31T10:16:44;98736.25;;;13.85;57.00
19594;BME280;9944;48.240;16.478;2023-03-31T10:20:50;98727.19;;;13.91;56.61
19594;BME280;9944;48.240;16.478;2023-03-31T10:25:07;98734.03;;;13.98;55.97
19594;BME280;9944;48.240;16.478;2023-03-31T10:29:12;98720.56;;;14.04;55.04
19594;BME280;9944;48.240;16.478;2023-03-31T10:33:18;98701.84;;;14.07;54.58
19594;BME280;9944;48.240;16.478;2023-03-31T10:37:27;98695.56;;;14.10;52.66
19594;BME280;9944;48.240;16.478;2023-03-31T10:41:33;98695.47;;;14.13;53.35
19594;BME280;9944;48.240;16.478;2023-03-31T10:45:40;98701.53;;;14.16;53.72
19594;BME280;9944;48.240;16.478;2023-03-31T10:49:47;98692.41;;;14.24;53.45
19594;BME280;9944;48.240;16.478;2023-03-31T10:53:54;98695.66;;;14.32;53.48
19594;BME280;9944;48.240;16.478;2023-03-31T10:58:02;98712.22;;;14.38;53.34
19594;BME280;9944;48.240;16.478;2023-03-31T11:06:47;98727.06;;;14.44;53.26
19594;BME280;9944;48.240;16.478;2023-03-31T11:11:05;98720.88;;;14.44;53.14
19594;BME280;9944;48.240;16.478;2023-03-31T11:15:21;98695.22;;;14.44;53.59
19594;BME280;9944;48.240;16.478;2023-03-31T11:19:36;98694.97;;;14.50;54.01
19594;BME280;9944;48.240;16.478;2023-03-31T11:23:44;98681.50;;;14.55;54.50
19594;BME280;9944;48.240;16.478;2023-03-31T11:28:03;98676.94;;;14.59;54.62
19594;BME280;9944;48.240;16.478;2023-03-31T11:32:35;98628.09;;;14.63;54.11
19594;BME280;9944;48.240;16.478;2023-03-31T11:41:10;98586.19;;;14.93;54.17
19594;BME280;9944;48.240;16.478;2023-03-31T11:45:17;98572.06;;;15.13;54.04
19594;BME280;9944;48.240;16.478;2023-03-31T11:49:25;98569.69;;;15.27;53.51
19594;BME280;9944;48.240;16.478;2023-03-31T11:53:31;98562.56;;;15.48;53.92
19594;BME280;9944;48.240;16.478;2023-03-31T11:57:39;98546.66;;;15.67;53.07
19594;BME280;9944;48.240;16.478;2023-03-31T12:01:49;98517.09;;;15.74;52.83
19594;BME280;9944;48.240;16.478;2023-03-31T12:06:01;98501.66;;;15.82;53.28
19594;BME280;9944;48.240;16.478;2023-03-31T12:10:14;98478.91;;;15.95;53.48
19594;BME280;9944;48.240;16.478;2023-03-31T12:14:26;98464.06;;;16.09;52.97
19594;BME280;9944;48.240;16.478;2023-03-31T12:18:34;98455.47;;;16.21;52.19
19594;BME280;9944;48.240;16.478;2023-03-31T12:22:42;98447.34;;;16.24;51.87
19594;BME280;9944;48.240;16.478;2023-03-31T12:26:53;98447.13;;;16.29;51.30
19594;BME280;9944;48.240;16.478;2023-03-31T12:31:02;98451.75;;;16.25;50.37
19594;BME280;9944;48.240;16.478;2023-03-31T12:35:14;98455.78;;;16.15;49.76
19594;BME280;9944;48.240;16.478;2023-03-31T12:39:30;98459.69;;;16.08;50.43
19594;BME280;9944;48.240;16.478;2023-03-31T12:48:38;98401.53;;;15.98;49.44
19594;BME280;9944;48.240;16.478;2023-03-31T12:52:53;98414.34;;;16.09;49.73
19594;BME280;9944;48.240;16.478;2023-03-31T12:57:19;98432.00;;;16.29;48.69
19594;BME280;9944;48.240;16.478;2023-03-31T13:01:23;98429.06;;;16.53;49.58
19594;BME280;9944;48.240;16.478;2023-03-31T13:05:43;98431.59;;;16.73;49.07
19594;BME280;9944;48.240;16.478;2023-03-31T13:09:48;98426.44;;;16.88;49.19
19594;BME280;9944;48.240;16.478;2023-03-31T13:14:00;98414.00;;;17.04;48.30
19594;BME280;9944;48.240;16.478;2023-03-31T13:18:05;98409.91;;;17.14;47.68
19594;BME280;9944;48.240;16.478;2023-03-31T13:22:27;98395.50;;;17.18;47.55
19594;BME280;9944;48.240;16.478;2023-03-31T13:26:39;98378.13;;;17.27;47.39
19594;BME280;9944;48.240;16.478;2023-03-31T13:30:54;98366.19;;;17.34;45.99
19594;BME280;9944;48.240;16.478;2023-03-31T13:35:01;98355.44;;;17.36;46.81
19594;BME280;9944;48.240;16.478;2023-03-31T13:44:00;98338.38;;;17.54;44.78
19594;BME280;9944;48.240;16.478;2023-03-31T13:52:43;98340.28;;;17.36;45.59
19594;BME280;9944;48.240;16.478;2023-03-31T13:56:57;98333.50;;;17.31;45.28
19594;BME280;9944;48.240;16.478;2023-03-31T14:01:39;98347.50;;;17.18;44.65
19594;BME280;9944;48.240;16.478;2023-03-31T14:05:52;98344.38;;;17.10;43.60
19594;BME280;9944;48.240;16.478;2023-03-31T14:09:58;98341.41;;;16.99;41.30
19594;BME280;9944;48.240;16.478;2023-03-31T14:14:05;98331.09;;;16.93;42.36
19594;BME280;9944;48.240;16.478;2023-03-31T14:18:11;98321.78;;;16.84;42.55
19594;BME280;9944;48.240;16.478;2023-03-31T14:22:24;98327.41;;;16.78;42.45
19594;BME280;9944;48.240;16.478;2023-03-31T14:26:52;98328.75;;;16.69;42.79
19594;BME280;9944;48.240;16.478;2023-03-31T14:31:08;98333.84;;;16.56;41.72
19594;BME280;9944;48.240;16.478;2023-03-31T14:35:27;98332.53;;;16.48;41.65
19594;BME280;9944;48.240;16.478;2023-03-31T14:39:36;98347.88;;;16.42;42.47
19594;BME280;9944;48.240;16.478;2023-03-31T14:43:46;98337.53;;;16.36;42.44
19594;BME280;9944;48.240;16.478;2023-03-31T14:47:53;98342.41;;;16.28;42.32
19594;BME280;9944;48.240;16.478;2023-03-31T14:52:00;98337.47;;;16.20;42.51
19594;BME280;9944;48.240;16.478;2023-03-31T14:56:06;98355.47;;;16.15;43.19
19594;BME280;9944;48.240;16.478;2023-03-31T15:00:14;98345.13;;;16.09;43.24
19594;BME280;9944;48.240;16.478;2023-03-31T15:04:21;98347.16;;;16.04;43.87
19594;BME280;9944;48.240;16.478;2023-03-31T15:08:40;98352.84;;;15.96;43.80
19594;BME280;9944;48.240;16.478;2023-03-31T15:12:43;98355.75;;;15.92;44.23
19594;BME280;9944;48.240;16.478;2023-03-31T15:16:49;98356.09;;;15.84;44.23
19594;BME280;9944;48.240;16.478;2023-03-31T15:20:52;98360.84;;;15.77;44.52
19594;BME280;9944;48.240;16.478;2023-03-31T15:24:56;98347.91;;;15.69;44.32
19594;BME280;9944;48.240;16.478;2023-03-31T15:29:04;98366.81;;;15.63;43.68
19594;BME280;9944;48.240;16.478;2023-03-31T15:33:17;98415.94;;;15.56;43.66
19594;BME280;9944;48.240;16.478;2023-03-31T15:37:24;98455.44;;;15.26;45.27
19594;BME280;9944;48.240;16.478;2023-03-31T15:41:29;98445.03;;;14.79;46.85
19594;BME280;9944;48.240;16.478;2023-03-31T15:45:47;98428.31;;;14.34;47.77
19594;BME280;9944;48.240;16.478;2023-03-31T15:49:56;98425.91;;;14.06;48.34
19594;BME280;9944;48.240;16.478;2023-03-31T15:54:02;98359.41;;;13.88;48.29
19594;BME280;9944;48.240;16.478;2023-03-31T15:58:14;98372.31;;;13.75;48.84
19594;BME280;9944;48.240;16.478;2023-03-31T16:02:19;98416.00;;;13.65;48.78
19594;BME280;9944;48.240;16.478;2023-03-31T16:06:37;98423.63;;;13.51;49.46
19594;BME280;9944;48.240;16.478;2023-03-31T16:10:41;98413.34;;;13.41;49.84
19594;BME280;9944;48.240;16.478;2023-03-31T16:14:48;98397.75;;;13.34;50.44
19594;BME280;9944;48.240;16.478;2023-03-31T16:18:54;98374.25;;;13.24;50.59
19594;BME280;9944;48.240;16.478;2023-03-31T16:23:13;98359.66;;;13.13;50.95
19594;BME280;9944;48.240;16.478;2023-03-31T16:27:18;98359.81;;;13.08;51.04
19594;BME280;9944;48.240;16.478;2023-03-31T16:31:30;98351.13;;;13.04;51.64
19594;BME280;9944;48.240;16.478;2023-03-31T16:35:36;98345.09;;;13.01;51.50
19594;BME280;9944;48.240;16.478;2023-03-31T16:39:41;98332.81;;;12.98;51.66
19594;BME280;9944;48.240;16.478;2023-03-31T16:43:45;98325.78;;;12.97;51.90
19594;BME280;9944;48.240;16.478;2023-03-31T16:47:48;98331.88;;;12.99;51.73
19594;BME280;9944;48.240;16.478;2023-03-31T16:51:52;98337.44;;;12.93;51.57
19594;BME280;9944;48.240;16.478;2023-03-31T16:55:57;98337.53;;;12.90;51.79
19594;BME280;9944;48.240;16.478;2023-03-31T17:00:00;98330.56;;;12.87;51.65
19594;BME280;9944;48.240;16.478;2023-03-31T17:04:03;98336.78;;;12.86;52.02
19594;BME280;9944;48.240;16.478;2023-03-31T17:08:08;98343.88;;;12.86;51.88
19594;BME280;9944;48.240;16.478;2023-03-31T17:12:13;98349.19;;;12.86;51.64
19594;BME280;9944;48.240;16.478;2023-03-31T17:16:16;98343.75;;;12.89;52.16
19594;BME280;9944;48.240;16.478;2023-03-31T17:20:33;98349.03;;;12.89;51.87
19594;BME280;9944;48.240;16.478;2023-03-31T17:24:37;98356.19;;;12.87;51.90
19594;BME280;9944;48.240;16.478;2023-03-31T17:28:42;98352.72;;;12.85;51.77
19594;BME280;9944;48.240;16.478;2023-03-31T17:32:45;98347.66;;;12.79;51.79
19594;BME280;9944;48.240;16.478;2023-03-31T17:36:51;98338.00;;;12.78;51.61
19594;BME280;9944;48.240;16.478;2023-03-31T17:41:01;98345.00;;;12.79;51.39
19594;BME280;9944;48.240;16.478;2023-03-31T17:45:08;98359.19;;;12.78;51.36
19594;BME280;9944;48.240;16.478;2023-03-31T17:49:11;98351.44;;;12.72;50.93
19594;BME280;9944;48.240;16.478;2023-03-31T17:53:14;98367.56;;;12.65;50.95
19594;BME280;9944;48.240;16.478;2023-03-31T17:57:17;98370.31;;;12.62;50.58
19594;BME280;9944;48.240;16.478;2023-03-31T18:01:21;98364.28;;;12.57;50.38
19594;BME280;9944;48.240;16.478;2023-03-31T18:05:25;98344.94;;;12.55;50.61
19594;BME280;9944;48.240;16.478;2023-03-31T18:09:28;98351.94;;;12.56;50.54
19594;BME280;9944;48.240;16.478;2023-03-31T18:13:33;98341.50;;;12.53;50.53
19594;BME280;9944;48.240;16.478;2023-03-31T18:17:39;98343.31;;;12.51;50.69
19594;BME280;9944;48.240;16.478;2023-03-31T18:21:44;98356.66;;;12.48;51.13
19594;BME280;9944;48.240;16.478;2023-03-31T18:25:47;98349.63;;;12.47;51.50
19594;BME280;9944;48.240;16.478;2023-03-31T18:29:50;98363.84;;;12.44;52.27
19594;BME280;9944;48.240;16.478;2023-03-31T18:33:54;98368.34;;;12.41;52.46
19594;BME280;9944;48.240;16.478;2023-03-31T18:37:58;98379.13;;;12.36;52.30
19594;BME280;9944;48.240;16.478;2023-03-31T18:42:01;98393.31;;;12.34;52.50
19594;BME280;9944;48.240;16.478;2023-03-31T18:46:05;98386.31;;;12.32;52.45
19594;BME280;9944;48.240;16.478;2023-03-31T18:50:10;98386.41;;;12.29;52.49
19594;BME280;9944;48.240;16.478;2023-03-31T18:54:14;98393.53;;;12.27;52.62
19594;BME280;9944;48.240;16.478;2023-03-31T18:58:17;98384.72;;;12.27;52.92
19594;BME280;9944;48.240;16.478;2023-03-31T19:02:20;98388.38;;;12.23;52.82
19594;BME280;9944;48.240;16.478;2023-03-31T19:06:25;98399.00;;;12.21;53.13
19594;BME280;9944;48.240;16.478;2023-03-31T19:10:28;98395.66;;;12.16;53.59
19594;BME280;9944;48.240;16.478;2023-03-31T19:14:32;98397.38;;;12.17;53.41
19594;BME280;9944;48.240;16.478;2023-03-31T19:18:36;98410.72;;;12.14;53.45
19594;BME280;9944;48.240;16.478;2023-03-31T19:22:41;98408.91;;;12.15;53.48
19594;BME280;9944;48.240;16.478;2023-03-31T19:26:45;98408.06;;;12.14;53.73
19594;BME280;9944;48.240;16.478;2023-03-31T19:30:49;98403.63;;;12.15;53.73
19594;BME280;9944;48.240;16.478;2023-03-31T19:34:53;98408.06;;;12.14;53.83
19594;BME280;9944;48.240;16.478;2023-03-31T19:38:58;98404.66;;;12.10;53.71
19594;BME280;9944;48.240;16.478;2023-03-31T19:43:01;98410.00;;;12.09;54.13
19594;BME280;9944;48.240;16.478;2023-03-31T19:47:05;98424.16;;;12.08;54.13
19594;BME280;9944;48.240;16.478;2023-03-31T19:51:08;98415.38;;;12.06;53.98
19594;BME280;9944;48.240;16.478;2023-03-31T19:55:13;98420.66;;;12.06;54.20
19594;BME280;9944;48.240;16.478;2023-03-31T19:59:16;98417.94;;;12.09;54.07
19594;BME280;9944;48.240;16.478;2023-03-31T20:03:20;98418.88;;;12.08;54.22
19594;BME280;9944;48.240;16.478;2023-03-31T20:07:24;98430.38;;;12.05;54.41
19594;BME280;9944;48.240;16.478;2023-03-31T20:11:29;98424.34;;;12.02;54.41
19594;BME280;9944;48.240;16.478;2023-03-31T20:15:32;98430.66;;;11.98;54.69
19594;BME280;9944;48.240;16.478;2023-03-31T20:19:36;98429.94;;;11.92;54.67
19594;BME280;9944;48.240;16.478;2023-03-31T20:23:40;98423.78;;;11.90;54.60
19594;BME280;9944;48.240;16.478;2023-03-31T20:27:45;98437.22;;;11.84;54.23
19594;BME280;9944;48.240;16.478;2023-03-31T20:31:48;98425.97;;;11.78;54.15
19594;BME280;9944;48.240;16.478;2023-03-31T20:35:59;98428.66;;;11.76;54.43
19594;BME280;9944;48.240;16.478;2023-03-31T20:40:03;98413.81;;;11.72;54.65
19594;BME280;9944;48.240;16.478;2023-03-31T20:44:09;98419.28;;;11.66;54.70
19594;BME280;9944;48.240;16.478;2023-03-31T20:48:16;98430.78;;;11.65;54.56
19594;BME280;9944;48.240;16.478;2023-03-31T20:52:19;98430.84;;;11.62;54.50
19594;BME280;9944;48.240;16.478;2023-03-31T20:56:25;98431.75;;;11.61;54.52
19594;BME280;9944;48.240;16.478;2023-03-31T21:00:30;98431.03;;;11.55;54.67
19594;BME280;9944;48.240;16.478;2023-03-31T21:04:33;98427.56;;;11.53;54.88
19594;BME280;9944;48.240;16.478;2023-03-31T21:08:37;98425.88;;;11.52;55.09
19594;BME280;9944;48.240;16.478;2023-03-31T21:12:40;98417.94;;;11.52;54.77
19594;BME280;9944;48.240;16.478;2023-03-31T21:16:48;98415.38;;;11.49;54.89
19594;BME280;9944;48.240;16.478;2023-03-31T21:20:53;98405.75;;;11.47;55.03
19594;BME280;9944;48.240;16.478;2023-03-31T21:24:56;98400.50;;;11.45;55.23
19594;BME280;9944;48.240;16.478;2023-03-31T21:28:59;98397.09;;;11.42;55.25
19594;BME280;9944;48.240;16.478;2023-03-31T21:33:04;98384.00;;;11.39;55.37
19594;BME280;9944;48.240;16.478;2023-03-31T21:37:07;98387.56;;;11.36;55.02
19594;BME280;9944;48.240;16.478;2023-03-31T21:41:12;98380.56;;;11.35;55.15
19594;BME280;9944;48.240;16.478;2023-03-31T21:45:16;98381.53;;;11.32;55.09
19594;BME280;9944;48.240;16.478;2023-03-31T21:49:20;98377.19;;;11.30;55.34
19594;BME280;9944;48.240;16.478;2023-03-31T21:53:24;98375.44;;;11.29;55.30
19594;BME280;9944;48.240;16.478;2023-03-31T21:57:27;98364.94;;;11.26;55.48
19594;BME280;9944;48.240;16.478;2023-03-31T22:01:31;98373.81;;;11.25;55.39
19594;BME280;9944;48.240;16.478;2023-03-31T22:05:35;98377.34;;;11.24;55.36
19594;BME280;9944;48.240;16.478;2023-03-31T22:09:39;98375.66;;;11.21;55.42
19594;BME280;9944;48.240;16.478;2023-03-31T22:13:43;98384.50;;;11.20;55.59
19594;BME280;9944;48.240;16.478;2023-03-31T22:17:47;98378.44;;;11.16;55.67
19594;BME280;9944;48.240;16.478;2023-03-31T22:21:51;98380.31;;;11.13;55.84
19594;BME280;9944;48.240;16.478;2023-03-31T22:25:55;98379.53;;;11.09;55.88